Time;durP1;ratioP1;P1;durP2;ratioP2;P2;SDS_P1;SDS_P2;PMS_P1;PMS_P2;Temp;Humidity;BMP_temperature;BMP_pressure;BME280_temperature;BME280_humidity;BME280_pressure;Samples;Min_cycle;Max_cycle;Signal;HPM_P1;HPM_P2
2021/03/10 00:01:24;;;;;;;41.70;27.83;;;;;;;;;;5137999;27;20228;-61
2021/03/10 00:03:51;;;;;;;45.63;29.35;;;;;;;;;;5135920;27;20276;-62
2021/03/10 00:06:17;;;;;;;39.88;27.45;;;;;;;;;;5135569;27;20262;-61
2021/03/10 00:08:44;;;;;;;37.97;25.90;;;;;;;;;;5135762;27;20212;-62
2021/03/10 00:11:12;;;;;;;41.25;25.52;;;;;;;;;;5135779;27;20225;-62
2021/03/10 00:13:38;;;;;;;40.40;27.10;;;;;;;;;;5135807;27;20252;-62
2021/03/10 00:16:06;;;;;;;39.20;26.92;;;;;;;;;;5135179;27;20574;-62
2021/03/10 00:18:32;;;;;;;42.65;27.20;;;;;;;;;;5134254;27;20689;-62
2021/03/10 00:20:59;;;;;;;42.08;26.90;;;;;;;;;;5134728;27;20546;-63
2021/03/10 00:23:26;;;;;;;41.53;26.17;;;;;;;;;;5136133;27;20737;-60
2021/03/10 00:25:53;;;;;;;40.83;27.67;;;;;;;;;;5138618;27;20202;-61
2021/03/10 00:28:20;;;;;;;36.33;25.95;;;;;;;;;;5138933;27;20219;-61
2021/03/10 00:30:47;;;;;;;40.50;26.15;;;;;;;;;;5138689;27;20281;-62
2021/03/10 00:33:14;;;;;;;39.08;26.55;;;;;;;;;;5138396;27;20207;-62
2021/03/10 00:35:40;;;;;;;36.55;24.48;;;;;;;;;;5138611;27;20194;-62
2021/03/10 00:38:07;;;;;;;40.58;26.08;;;;;;;;;;5138451;27;20190;-62
2021/03/10 00:40:34;;;;;;;38.22;27.90;;;;;;;;;;5138683;27;20199;-62
2021/03/10 00:43:01;;;;;;;39.13;26.63;;;;;;;;;;5138687;27;20620;-63
2021/03/10 00:45:28;;;;;;;40.83;27.30;;;;;;;;;;5152142;27;20203;-60
2021/03/10 00:47:56;;;;;;;38.47;26.20;;;;;;;;;;5148407;27;20244;-62
2021/03/10 00:50:23;;;;;;;42.53;27.85;;;;;;;;;;5140624;27;20266;-62
2021/03/10 00:52:50;;;;;;;38.78;25.90;;;;;;;;;;5142006;27;20210;-63
2021/03/10 00:55:18;;;;;;;35.50;26.02;;;;;;;;;;5141926;27;20223;-62
2021/03/10 00:57:45;;;;;;;37.65;26.25;;;;;;;;;;5142207;27;20682;-61
2021/03/10 01:00:13;;;;;;;44.65;26.58;;;;;;;;;;5141360;27;20199;-62
2021/03/10 01:02:40;;;;;;;37.05;25.38;;;;;;;;;;5141212;27;20195;-61
2021/03/10 01:05:07;;;;;;;42.63;25.40;;;;;;;;;;5141102;27;20342;-62
2021/03/10 01:07:34;;;;;;;37.03;25.67;;;;;;;;;;5139099;27;20635;-62
2021/03/10 01:10:01;;;;;;;36.72;25.52;;;;;;;;;;5138585;27;20195;-62
2021/03/10 01:12:28;;;;;;;38.17;25.67;;;;;;;;;;5138057;27;20199;-61
2021/03/10 01:14:54;;;;;;;38.58;26.50;;;;;;;;;;5137880;27;20219;-61
2021/03/10 01:17:21;;;;;;;41.30;27.30;;;;;;;;;;5138075;27;20566;-61
2021/03/10 01:19:49;;;;;;;41.83;25.92;;;;;;;;;;5137991;27;20199;-62
2021/03/10 01:22:16;;;;;;;41.80;26.13;;;;;;;;;;5137580;27;20199;-61
2021/03/10 01:24:42;;;;;;;44.83;27.88;;;;;;;;;;5137610;27;20215;-63
2021/03/10 01:27:09;;;;;;;41.10;26.75;;;;;;;;;;5137637;27;20248;-63
2021/03/10 01:29:36;;;;;;;40.80;26.25;;;;;;;;;;5136990;27;20223;-62
2021/03/10 01:32:03;;;;;;;41.92;26.88;;;;;;;;;;5137529;27;20199;-62
2021/03/10 01:34:30;;;;;;;40.55;27.33;;;;;;;;;;5136235;27;20220;-62
2021/03/10 01:36:57;;;;;;;43.70;27.27;;;;;;;;;;5137461;27;20207;-62
2021/03/10 01:39:24;;;;;;;36.90;25.33;;;;;;;;;;5137433;27;20202;-61
2021/03/10 01:41:51;;;;;;;44.28;27.13;;;;;;;;;;5137278;27;20674;-62
2021/03/10 01:44:17;;;;;;;37.40;25.85;;;;;;;;;;5137139;27;20233;-62
2021/03/10 01:46:44;;;;;;;40.72;26.73;;;;;;;;;;5137698;27;20198;-62
2021/03/10 01:49:11;;;;;;;40.92;27.55;;;;;;;;;;5140904;27;20215;-62
2021/03/10 01:51:38;;;;;;;40.38;28.00;;;;;;;;;;5139427;27;20284;-62
2021/03/10 01:54:06;;;;;;;36.30;24.98;;;;;;;;;;5144546;27;20241;-61
2021/03/10 01:56:33;;;;;;;42.50;27.77;;;;;;;;;;5138973;27;20199;-62
2021/03/10 01:59:00;;;;;;;38.67;27.13;;;;;;;;;;5137577;27;20195;-61
2021/03/10 02:01:26;;;;;;;40.45;26.63;;;;;;;;;;5137363;27;20260;-63
2021/03/10 02:03:53;;;;;;;37.45;25.73;;;;;;;;;;5137257;27;20219;-61
2021/03/10 02:06:27;;;;;;;38.67;27.30;;;;;;;;;;5138830;27;20207;-61
2021/03/10 02:08:55;;;;;;;41.85;27.58;;;;;;;;;;5137534;27;20207;-61
2021/03/10 02:11:27;;;;;;;40.83;28.42;;;;;;;;;;5138711;27;20260;-62
2021/03/10 02:14:09;;;;;;;41.58;28.05;;;;;;;;;;5137505;27;20219;-62
2021/03/10 02:16:42;;;;;;;44.88;28.65;;;;;;;;;;5137218;27;20286;-62
2021/03/10 02:19:22;;;;;;;44.67;28.42;;;;;;;;;;5138212;27;20665;-62
2021/03/10 02:21:52;;;;;;;47.22;29.27;;;;;;;;;;5137686;27;20183;-62
2021/03/10 02:24:25;;;;;;;43.53;28.75;;;;;;;;;;5137876;27;20287;-62
2021/03/10 02:27:31;;;;;;;46.65;29.52;;;;;;;;;;5137660;27;20263;-61
2021/03/10 02:29:59;;;;;;;42.70;29.17;;;;;;;;;;5137593;27;20207;-61
2021/03/10 02:32:26;;;;;;;42.58;28.65;;;;;;;;;;5137719;27;20199;-62
2021/03/10 02:34:53;;;;;;;45.88;30.15;;;;;;;;;;5137142;27;20219;-61
2021/03/10 02:37:20;;;;;;;43.72;28.60;;;;;;;;;;5137309;27;20195;-62
2021/03/10 02:39:47;;;;;;;43.97;29.67;;;;;;;;;;5137332;27;20199;-62
2021/03/10 02:42:14;;;;;;;40.13;29.25;;;;;;;;;;5136266;27;20674;-62
2021/03/10 02:44:41;;;;;;;49.25;31.05;;;;;;;;;;5136043;27;20706;-62
2021/03/10 02:47:09;;;;;;;43.17;28.95;;;;;;;;;;5134813;27;20613;-62
2021/03/10 02:49:36;;;;;;;50.08;31.40;;;;;;;;;;5135678;27;20222;-62
2021/03/10 02:52:03;;;;;;;53.63;30.58;;;;;;;;;;5136129;27;20206;-62
2021/03/10 02:54:31;;;;;;;46.80;31.23;;;;;;;;;;5135373;27;20726;-61
2021/03/10 02:56:58;;;;;;;48.33;30.13;;;;;;;;;;5135924;27;20206;-61
2021/03/10 02:59:25;;;;;;;47.05;29.27;;;;;;;;;;5135555;27;20203;-61
2021/03/10 03:01:54;;;;;;;57.15;31.40;;;;;;;;;;5135677;27;20203;-61
2021/03/10 03:04:22;;;;;;;49.78;31.15;;;;;;;;;;5135255;27;20222;-61
2021/03/10 03:06:48;;;;;;;47.25;30.58;;;;;;;;;;5135320;27;20260;-61
2021/03/10 03:09:15;;;;;;;47.75;30.90;;;;;;;;;;5135542;27;20230;-62
2021/03/10 03:11:42;;;;;;;46.10;30.45;;;;;;;;;;5136287;27;20195;-61
2021/03/10 03:14:10;;;;;;;51.95;31.88;;;;;;;;;;5146856;27;20223;-62
2021/03/10 03:16:37;;;;;;;46.28;30.75;;;;;;;;;;5148046;27;20210;-62
2021/03/10 03:19:04;;;;;;;44.50;29.38;;;;;;;;;;5141169;27;20206;-61
2021/03/10 03:21:32;;;;;;;45.97;31.65;;;;;;;;;;5135368;27;20199;-61
2021/03/10 03:23:59;;;;;;;48.45;30.90;;;;;;;;;;5135364;27;20219;-63
2021/03/10 03:26:26;;;;;;;50.10;32.33;;;;;;;;;;5135199;27;20203;-61
2021/03/10 03:28:53;;;;;;;59.80;34.40;;;;;;;;;;5135558;27;20222;-61
2021/03/10 03:31:20;;;;;;;60.88;35.60;;;;;;;;;;5135585;27;20203;-61
2021/03/10 03:33:47;;;;;;;57.58;35.15;;;;;;;;;;5135302;27;20223;-61
2021/03/10 03:36:14;;;;;;;58.08;32.80;;;;;;;;;;5137152;27;20203;-61
2021/03/10 03:38:42;;;;;;;55.35;32.95;;;;;;;;;;5136313;27;20563;-60
2021/03/10 03:41:09;;;;;;;52.50;34.03;;;;;;;;;;5135620;27;20214;-61
2021/03/10 03:43:36;;;;;;;61.03;34.20;;;;;;;;;;5138331;27;20292;-63
2021/03/10 03:46:05;;;;;;;63.05;36.53;;;;;;;;;;5142633;27;20203;-62
2021/03/10 03:48:32;;;;;;;64.43;36.42;;;;;;;;;;5138777;27;20302;-62
2021/03/10 03:50:59;;;;;;;55.70;34.90;;;;;;;;;;5136741;27;20666;-61
2021/03/10 03:53:26;;;;;;;61.17;35.63;;;;;;;;;;5135978;27;20226;-62
2021/03/10 03:55:53;;;;;;;56.88;33.53;;;;;;;;;;5135523;27;20194;-61
2021/03/10 03:58:20;;;;;;;61.53;36.83;;;;;;;;;;5135447;27;20270;-61
2021/03/10 04:00:47;;;;;;;56.20;34.75;;;;;;;;;;5134890;27;20743;-62
2021/03/10 04:03:14;;;;;;;53.45;33.60;;;;;;;;;;5135089;27;20582;-62
2021/03/10 04:07:53;;;;;;;58.45;32.72;;;;;;;;;;5112022;27;20548;-61
2021/03/10 04:10:21;;;;;;;57.70;32.78;;;;;;;;;;5111037;28;20229;-62
2021/03/10 04:12:48;;;;;;;66.85;35.63;;;;;;;;;;5111218;28;20207;-61
2021/03/10 04:15:15;;;;;;;58.65;34.17;;;;;;;;;;5111041;28;20219;-62
2021/03/10 04:17:42;;;;;;;58.85;34.40;;;;;;;;;;5110641;28;20199;-62
2021/03/10 04:20:10;;;;;;;64.38;35.33;;;;;;;;;;5111544;28;20204;-62
2021/03/10 04:22:37;;;;;;;64.10;35.33;;;;;;;;;;5111104;28;20290;-63
2021/03/10 04:25:06;;;;;;;67.60;35.15;;;;;;;;;;5110661;28;20726;-62
2021/03/10 04:27:33;;;;;;;53.70;33.75;;;;;;;;;;5110640;28;20227;-62
2021/03/10 04:30:00;;;;;;;63.65;34.13;;;;;;;;;;5111234;28;20226;-62
2021/03/10 04:32:27;;;;;;;59.25;33.22;;;;;;;;;;5111309;28;20547;-62
2021/03/10 04:34:53;;;;;;;60.75;34.28;;;;;;;;;;5112908;28;20223;-61
2021/03/10 04:37:20;;;;;;;60.97;36.58;;;;;;;;;;5112682;28;20207;-61
2021/03/10 04:39:47;;;;;;;59.97;32.53;;;;;;;;;;5111512;28;20207;-62
2021/03/10 04:42:14;;;;;;;56.85;34.63;;;;;;;;;;5111366;28;20200;-60
2021/03/10 04:44:41;;;;;;;63.42;34.50;;;;;;;;;;5112001;28;20224;-61
2021/03/10 04:47:08;;;;;;;59.58;34.17;;;;;;;;;;5111158;28;20691;-61
2021/03/10 04:49:35;;;;;;;57.35;33.42;;;;;;;;;;5112464;28;20211;-62
2021/03/10 04:52:02;;;;;;;64.40;33.45;;;;;;;;;;5110934;28;20207;-62
2021/03/10 04:54:28;;;;;;;61.45;33.35;;;;;;;;;;5110912;28;20224;-62
2021/03/10 04:56:55;;;;;;;61.88;33.70;;;;;;;;;;5111632;28;20320;-61
2021/03/10 04:59:23;;;;;;;61.38;35.15;;;;;;;;;;5111388;28;20210;-61
2021/03/10 05:01:49;;;;;;;53.30;30.83;;;;;;;;;;5110677;28;20273;-62
2021/03/10 05:04:16;;;;;;;60.22;32.22;;;;;;;;;;5111183;28;20220;-62
2021/03/10 05:06:43;;;;;;;60.80;32.20;;;;;;;;;;5111231;28;20292;-62
2021/03/10 05:09:10;;;;;;;64.90;36.17;;;;;;;;;;5110911;28;20223;-61
2021/03/10 05:11:39;;;;;;;54.92;32.50;;;;;;;;;;5110635;28;20200;-61
2021/03/10 05:14:06;;;;;;;56.08;31.92;;;;;;;;;;5110334;28;20222;-61
2021/03/10 05:16:34;;;;;;;55.03;29.75;;;;;;;;;;5110252;28;20196;-62
2021/03/10 05:19:01;;;;;;;59.17;30.73;;;;;;;;;;5097645;28;20196;-62
2021/03/10 05:21:27;;;;;;;61.80;31.75;;;;;;;;;;5096308;28;20254;-62
2021/03/10 05:23:54;;;;;;;65.85;33.47;;;;;;;;;;5096351;28;20254;-62
2021/03/10 05:26:21;;;;;;;60.63;32.50;;;;;;;;;;5096265;28;20273;-62
2021/03/10 05:28:48;;;;;;;52.90;30.25;;;;;;;;;;5096406;28;20204;-62
2021/03/10 05:31:14;;;;;;;55.55;31.73;;;;;;;;;;5096388;28;20207;-60
2021/03/10 05:33:42;;;;;;;67.20;33.58;;;;;;;;;;5096702;28;20235;-62
2021/03/10 05:36:09;;;;;;;61.28;33.65;;;;;;;;;;5096155;28;20611;-62
2021/03/10 05:38:36;;;;;;;59.47;32.08;;;;;;;;;;5095899;28;20577;-63
2021/03/10 05:41:02;;;;;;;55.15;32.20;;;;;;;;;;5095926;28;20619;-62
2021/03/10 05:43:30;;;;;;;60.35;31.35;;;;;;;;;;5097701;28;20295;-61
2021/03/10 05:45:57;;;;;;;53.08;29.83;;;;;;;;;;5096090;28;20266;-62
2021/03/10 05:48:23;;;;;;;54.90;31.50;;;;;;;;;;5095881;28;20196;-62
2021/03/10 05:50:51;;;;;;;48.03;28.67;;;;;;;;;;5095915;28;20680;-62
2021/03/10 05:53:20;;;;;;;63.00;31.15;;;;;;;;;;5095864;28;20224;-62
2021/03/10 05:55:48;;;;;;;50.55;29.38;;;;;;;;;;5096106;28;20205;-62
2021/03/10 05:58:14;;;;;;;60.08;32.75;;;;;;;;;;5095628;28;20676;-62
2021/03/10 06:00:45;;;;;;;53.20;31.17;;;;;;;;;;5095891;28;20200;-62
2021/03/10 06:03:12;;;;;;;57.30;31.15;;;;;;;;;;5096046;28;20240;-61
2021/03/10 06:05:39;;;;;;;52.90;30.60;;;;;;;;;;5095592;28;20196;-61
2021/03/10 06:08:08;;;;;;;53.78;29.73;;;;;;;;;;5095539;28;20562;-61
2021/03/10 06:10:39;;;;;;;47.63;28.80;;;;;;;;;;5095674;28;20574;-61
2021/03/10 06:13:06;;;;;;;54.55;29.30;;;;;;;;;;5095501;28;20257;-60
2021/03/10 06:15:42;;;;;;;50.97;29.48;;;;;;;;;;5095356;28;20204;-61
2021/03/10 06:18:09;;;;;;;48.75;30.77;;;;;;;;;;5095376;28;20249;-62
2021/03/10 06:20:36;;;;;;;53.13;30.98;;;;;;;;;;5095317;28;20658;-61
2021/03/10 06:23:03;;;;;;;53.10;29.90;;;;;;;;;;5095381;28;20204;-62
2021/03/10 06:25:37;;;;;;;54.92;31.98;;;;;;;;;;5095441;28;20239;-61
2021/03/10 06:28:04;;;;;;;56.78;32.20;;;;;;;;;;5095071;28;20196;-61
2021/03/10 06:30:32;;;;;;;53.78;30.95;;;;;;;;;;5094620;28;20211;-61
2021/03/10 06:32:59;;;;;;;49.40;29.70;;;;;;;;;;5095528;28;20565;-61
2021/03/10 06:35:26;;;;;;;58.03;31.20;;;;;;;;;;5097266;28;20231;-61
2021/03/10 06:37:53;;;;;;;58.15;32.90;;;;;;;;;;5095583;28;20215;-62
2021/03/10 06:40:20;;;;;;;53.08;31.55;;;;;;;;;;5096572;28;20207;-63
2021/03/10 06:42:55;;;;;;;51.92;31.70;;;;;;;;;;5103644;28;20197;-61
2021/03/10 06:45:30;;;;;;;53.40;30.65;;;;;;;;;;5104781;28;20260;-61
2021/03/10 06:47:56;;;;;;;52.17;31.00;;;;;;;;;;5099585;28;20673;-61
2021/03/10 06:50:33;;;;;;;51.25;30.88;;;;;;;;;;5099976;28;20302;-62
2021/03/10 06:53:00;;;;;;;50.72;29.13;;;;;;;;;;5095260;28;20563;-62
2021/03/10 06:55:36;;;;;;;48.03;29.63;;;;;;;;;;5095229;28;20235;-60
2021/03/10 06:58:05;;;;;;;48.72;29.30;;;;;;;;;;5097589;28;20188;-62
2021/03/10 07:00:32;;;;;;;47.88;30.40;;;;;;;;;;5095470;28;20200;-61
2021/03/10 07:02:59;;;;;;;48.13;29.35;;;;;;;;;;5095302;28;20257;-61
2021/03/10 07:05:26;;;;;;;47.65;28.30;;;;;;;;;;5094773;28;20203;-61
2021/03/10 07:07:54;;;;;;;44.03;28.75;;;;;;;;;;5097847;28;20212;-62
2021/03/10 07:10:21;;;;;;;49.80;29.20;;;;;;;;;;5109836;28;20200;-62
2021/03/10 07:12:48;;;;;;;51.33;30.48;;;;;;;;;;5100003;28;20200;-61
2021/03/10 07:15:16;;;;;;;49.17;30.80;;;;;;;;;;5095638;28;20637;-62
2021/03/10 07:17:43;;;;;;;52.83;30.02;;;;;;;;;;5095952;28;20200;-63
2021/03/10 07:20:10;;;;;;;44.05;29.85;;;;;;;;;;5095725;28;20211;-62
2021/03/10 07:22:39;;;;;;;41.15;27.52;;;;;;;;;;5096181;28;20203;-61
2021/03/10 07:25:08;;;;;;;41.65;28.42;;;;;;;;;;5095950;28;20330;-62
2021/03/10 07:27:38;;;;;;;43.70;27.65;;;;;;;;;;5095689;28;20216;-61
2021/03/10 07:30:05;;;;;;;43.67;28.80;;;;;;;;;;5096353;28;20668;-61
2021/03/10 07:32:33;;;;;;;49.35;28.73;;;;;;;;;;5095779;28;20208;-62
2021/03/10 07:35:00;;;;;;;39.17;25.98;;;;;;;;;;5094945;28;20216;-62
2021/03/10 07:37:27;;;;;;;43.38;27.65;;;;;;;;;;5094615;28;20330;-62
2021/03/10 07:40:05;;;;;;;41.53;26.65;;;;;;;;;;5094457;28;20619;-63
2021/03/10 07:42:32;;;;;;;37.15;25.48;;;;;;;;;;5094057;28;20193;-62
2021/03/10 07:44:59;;;;;;;44.83;27.92;;;;;;;;;;5094294;28;20777;-62
2021/03/10 07:47:26;;;;;;;43.70;27.60;;;;;;;;;;5094208;28;20227;-62
2021/03/10 07:50:00;;;;;;;39.28;26.73;;;;;;;;;;5094267;28;20208;-62
2021/03/10 07:52:28;;;;;;;42.05;26.85;;;;;;;;;;5094246;28;20202;-62
2021/03/10 07:54:58;;;;;;;44.20;26.33;;;;;;;;;;5094081;28;20311;-61
2021/03/10 07:57:25;;;;;;;35.05;24.35;;;;;;;;;;5094792;28;20571;-62
2021/03/10 07:59:53;;;;;;;38.03;24.67;;;;;;;;;;5098250;28;20258;-62
2021/03/10 08:02:20;;;;;;;39.38;26.17;;;;;;;;;;5094281;28;20253;-62
2021/03/10 08:04:53;;;;;;;37.15;24.38;;;;;;;;;;5094132;28;20224;-61
2021/03/10 08:07:22;;;;;;;33.72;24.83;;;;;;;;;;5095351;28;20224;-61
2021/03/10 08:09:51;;;;;;;34.20;24.95;;;;;;;;;;5095015;28;20196;-61
2021/03/10 08:12:18;;;;;;;37.30;25.80;;;;;;;;;;5094748;28;20200;-61
2021/03/10 08:14:47;;;;;;;36.35;24.02;;;;;;;;;;5094686;28;20270;-62
2021/03/10 08:17:21;;;;;;;35.67;25.60;;;;;;;;;;5093530;28;20196;-62
2021/03/10 08:19:51;;;;;;;42.60;26.60;;;;;;;;;;5093635;28;20196;-62
2021/03/10 08:22:18;;;;;;;37.47;24.98;;;;;;;;;;5093820;28;20215;-62
2021/03/10 08:24:46;;;;;;;35.92;24.42;;;;;;;;;;5094235;28;20224;-61
2021/03/10 08:27:13;;;;;;;37.05;25.27;;;;;;;;;;5093274;28;20216;-61
2021/03/10 08:29:46;;;;;;;41.15;26.60;;;;;;;;;;5093363;28;20207;-63
2021/03/10 08:32:22;;;;;;;37.22;25.45;;;;;;;;;;5093911;28;20193;-62
2021/03/10 08:34:49;;;;;;;32.17;23.08;;;;;;;;;;5093870;28;20571;-63
2021/03/10 08:37:16;;;;;;;37.95;28.48;;;;;;;;;;5092157;28;20433;-60
2021/03/10 08:39:43;;;;;;;39.78;27.17;;;;;;;;;;5094355;28;20208;-61
2021/03/10 08:42:11;;;;;;;35.08;25.73;;;;;;;;;;5093146;28;20295;-61
2021/03/10 08:44:41;;;;;;;35.95;25.02;;;;;;;;;;5093269;28;20340;-62
2021/03/10 08:47:11;;;;;;;33.17;24.27;;;;;;;;;;5092970;28;20646;-62
2021/03/10 08:49:38;;;;;;;33.13;23.90;;;;;;;;;;5094779;28;20660;-62
2021/03/10 08:52:06;;;;;;;35.70;23.98;;;;;;;;;;5095369;28;20204;-61
2021/03/10 08:54:33;;;;;;;38.03;24.58;;;;;;;;;;5097638;28;20790;-61
2021/03/10 08:57:00;;;;;;;36.65;25.00;;;;;;;;;;5097459;28;20200;-62
2021/03/10 08:59:36;;;;;;;31.45;24.13;;;;;;;;;;5097187;28;20201;-62
2021/03/10 09:02:03;;;;;;;36.33;25.05;;;;;;;;;;5096799;28;20620;-61
2021/03/10 09:04:30;;;;;;;37.13;25.10;;;;;;;;;;5097118;28;20252;-63
2021/03/10 09:06:57;;;;;;;31.38;24.05;;;;;;;;;;5096460;28;20224;-61
2021/03/10 09:09:25;;;;;;;41.10;26.60;;;;;;;;;;5096901;28;20303;-62
2021/03/10 09:11:52;;;;;;;33.97;24.10;;;;;;;;;;5096867;28;20200;-62
2021/03/10 09:14:19;;;;;;;34.72;24.15;;;;;;;;;;5096742;28;20307;-62
2021/03/10 09:16:57;;;;;;;30.73;22.90;;;;;;;;;;5097248;28;20207;-61
2021/03/10 09:19:30;;;;;;;34.75;24.05;;;;;;;;;;5097522;28;20185;-63
2021/03/10 09:22:10;;;;;;;34.78;24.13;;;;;;;;;;5096845;28;20211;-63
2021/03/10 09:24:53;;;;;;;31.25;23.08;;;;;;;;;;5098302;28;20223;-63
2021/03/10 09:27:21;;;;;;;31.00;23.20;;;;;;;;;;5098576;28;20227;-62
2021/03/10 09:29:48;;;;;;;32.20;22.90;;;;;;;;;;5098888;28;20200;-62
2021/03/10 09:32:15;;;;;;;30.00;22.00;;;;;;;;;;5096865;28;20226;-61
2021/03/10 09:34:44;;;;;;;30.73;22.63;;;;;;;;;;5096502;28;20268;-61
2021/03/10 09:37:13;;;;;;;30.00;22.35;;;;;;;;;;5098775;28;20246;-62
2021/03/10 09:39:41;;;;;;;32.05;23.92;;;;;;;;;;5098355;28;20565;-63
2021/03/10 09:42:08;;;;;;;29.67;21.90;;;;;;;;;;5099010;28;20204;-61
2021/03/10 09:44:41;;;;;;;29.13;21.90;;;;;;;;;;5098696;28;20224;-62
2021/03/10 09:47:13;;;;;;;30.20;22.27;;;;;;;;;;5106627;28;20219;-61
2021/03/10 09:49:45;;;;;;;30.58;22.52;;;;;;;;;;5102553;28;20189;-62
2021/03/10 09:52:12;;;;;;;25.80;21.58;;;;;;;;;;5105948;28;20185;-63
2021/03/10 09:54:48;;;;;;;27.40;21.80;;;;;;;;;;5106095;28;20232;-62
2021/03/10 09:57:20;;;;;;;27.38;20.48;;;;;;;;;;5108144;28;20422;-63
2021/03/10 09:59:47;;;;;;;29.13;21.75;;;;;;;;;;5100876;28;20185;-63
2021/03/10 10:02:15;;;;;;;30.60;22.03;;;;;;;;;;5098390;28;20568;-63
2021/03/10 10:04:42;;;;;;;30.05;23.20;;;;;;;;;;5097031;28;20470;-64
2021/03/10 10:07:11;;;;;;;31.97;21.77;;;;;;;;;;5099084;28;20220;-62
2021/03/10 10:09:38;;;;;;;26.77;19.77;;;;;;;;;;5102039;28;20495;-62
2021/03/10 10:12:06;;;;;;;25.45;20.45;;;;;;;;;;5102339;28;20201;-60
2021/03/10 10:14:32;;;;;;;23.50;19.00;;;;;;;;;;5101846;28;20230;-62
2021/03/10 10:16:59;;;;;;;26.67;19.60;;;;;;;;;;5101494;28;20945;-62
2021/03/10 10:19:26;;;;;;;22.50;18.70;;;;;;;;;;5101598;28;20447;-62
2021/03/10 10:21:53;;;;;;;27.10;20.80;;;;;;;;;;5100574;28;20443;-63
2021/03/10 10:24:20;;;;;;;29.70;22.73;;;;;;;;;;5099153;28;20462;-63
2021/03/10 10:26:48;;;;;;;25.00;19.37;;;;;;;;;;5098932;28;20878;-62
2021/03/10 10:29:14;;;;;;;26.33;20.00;;;;;;;;;;5098695;28;20472;-62
2021/03/10 10:31:41;;;;;;;24.60;19.63;;;;;;;;;;5098744;28;20958;-62
2021/03/10 10:34:08;;;;;;;22.93;18.23;;;;;;;;;;5100342;28;20469;-62
2021/03/10 10:36:35;;;;;;;24.60;18.63;;;;;;;;;;5099912;28;20446;-63
2021/03/10 10:39:02;;;;;;;24.97;19.70;;;;;;;;;;5100576;28;20442;-62
2021/03/10 10:41:29;;;;;;;22.57;18.57;;;;;;;;;;5098610;28;20442;-62
2021/03/10 10:43:56;;;;;;;24.97;19.60;;;;;;;;;;5098828;28;20516;-63
2021/03/10 10:46:23;;;;;;;24.70;18.10;;;;;;;;;;5096319;28;20474;-63
2021/03/10 10:48:50;;;;;;;24.83;19.00;;;;;;;;;;5095785;28;20495;-64
2021/03/10 10:51:19;;;;;;;21.87;18.33;;;;;;;;;;5095646;28;20495;-63
2021/03/10 10:53:46;;;;;;;25.90;20.33;;;;;;;;;;5095459;28;20826;-63
2021/03/10 10:56:13;;;;;;;26.57;20.60;;;;;;;;;;5095327;28;20520;-63
2021/03/10 10:58:40;;;;;;;24.90;18.90;;;;;;;;;;5094972;28;20938;-64
2021/03/10 11:01:07;;;;;;;22.83;17.97;;;;;;;;;;5095374;28;20475;-61
2021/03/10 11:03:34;;;;;;;22.37;18.53;;;;;;;;;;5095350;28;20462;-63
2021/03/10 11:06:01;;;;;;;23.00;18.70;;;;;;;;;;5094486;28;20470;-63
2021/03/10 11:08:28;;;;;;;24.00;18.63;;;;;;;;;;5095646;28;20446;-63
2021/03/10 11:10:55;;;;;;;21.40;18.17;;;;;;;;;;5095387;28;20492;-62
2021/03/10 11:13:21;;;;;;;24.13;19.03;;;;;;;;;;5095197;28;20962;-63
2021/03/10 11:15:49;;;;;;;23.57;18.33;;;;;;;;;;5093702;28;20442;-63
2021/03/10 11:18:16;;;;;;;22.97;17.40;;;;;;;;;;5095015;28;20434;-63
2021/03/10 11:20:42;;;;;;;22.73;19.30;;;;;;;;;;5095481;28;20451;-63
2021/03/10 11:23:09;;;;;;;23.27;18.93;;;;;;;;;;5095245;28;20816;-62
2021/03/10 11:25:36;;;;;;;22.50;18.50;;;;;;;;;;5094542;28;20442;-62
2021/03/10 11:28:03;;;;;;;25.40;18.37;;;;;;;;;;5095233;28;20474;-62
2021/03/10 11:30:29;;;;;;;20.00;17.67;;;;;;;;;;5096256;28;20776;-63
2021/03/10 11:32:57;;;;;;;21.70;17.10;;;;;;;;;;5095041;28;21013;-63
2021/03/10 11:35:24;;;;;;;17.40;15.53;;;;;;;;;;5095819;28;20499;-63
2021/03/10 11:37:51;;;;;;;21.40;17.70;;;;;;;;;;5095711;28;20434;-62
2021/03/10 11:40:18;;;;;;;21.37;17.60;;;;;;;;;;5094830;28;20438;-64
2021/03/10 11:42:44;;;;;;;20.00;16.63;;;;;;;;;;5094709;28;20443;-63
2021/03/10 11:45:12;;;;;;;21.30;16.57;;;;;;;;;;5094056;28;20458;-62
2021/03/10 11:47:39;;;;;;;20.93;15.87;;;;;;;;;;5094415;28;20486;-62
2021/03/10 11:50:08;;;;;;;20.00;15.83;;;;;;;;;;5093895;28;20499;-63
2021/03/10 11:52:35;;;;;;;17.80;15.57;;;;;;;;;;5095016;28;20446;-63
2021/03/10 11:55:01;;;;;;;17.93;16.03;;;;;;;;;;5094671;28;20462;-63
2021/03/10 11:57:28;;;;;;;16.93;14.40;;;;;;;;;;5094518;28;20438;-63
2021/03/10 11:59:55;;;;;;;19.90;16.67;;;;;;;;;;5094842;28;20446;-62
2021/03/10 12:02:22;;;;;;;20.87;17.00;;;;;;;;;;5094913;28;20446;-63
2021/03/10 12:04:48;;;;;;;19.27;16.57;;;;;;;;;;5095666;28;20462;-63
2021/03/10 12:07:17;;;;;;;18.60;15.57;;;;;;;;;;5095943;28;20547;-62
2021/03/10 12:09:43;;;;;;;22.40;17.00;;;;;;;;;;5095880;28;20493;-63
2021/03/10 12:12:10;;;;;;;23.73;17.33;;;;;;;;;;5096174;28;20438;-61
2021/03/10 12:14:37;;;;;;;24.63;18.93;;;;;;;;;;5098055;28;20462;-63
2021/03/10 12:17:04;;;;;;;19.97;16.60;;;;;;;;;;5098331;28;20825;-63
2021/03/10 12:19:32;;;;;;;22.13;17.10;;;;;;;;;;5096087;28;20442;-63
2021/03/10 12:21:58;;;;;;;23.03;18.37;;;;;;;;;;5095508;28;20485;-62
2021/03/10 12:24:26;;;;;;;21.90;16.40;;;;;;;;;;5097040;28;20461;-63
2021/03/10 12:26:53;;;;;;;23.73;18.70;;;;;;;;;;5097244;28;20478;-61
2021/03/10 12:29:20;;;;;;;21.93;17.67;;;;;;;;;;5101361;28;20445;-62
2021/03/10 12:31:47;;;;;;;21.10;17.97;;;;;;;;;;5101462;28;20446;-62
2021/03/10 12:34:13;;;;;;;24.70;19.17;;;;;;;;;;5102783;28;20465;-62
2021/03/10 12:36:40;;;;;;;24.47;19.10;;;;;;;;;;5101015;28;20449;-62
2021/03/10 12:39:07;;;;;;;21.10;17.70;;;;;;;;;;5102738;28;20488;-63
2021/03/10 12:41:35;;;;;;;23.87;19.00;;;;;;;;;;5100378;28;20446;-63
2021/03/10 12:44:02;;;;;;;23.07;17.40;;;;;;;;;;5100353;28;20969;-63
2021/03/10 12:46:31;;;;;;;23.63;18.60;;;;;;;;;;5098447;28;20934;-63
2021/03/10 12:48:58;;;;;;;22.97;18.30;;;;;;;;;;5099555;28;20442;-61
2021/03/10 12:51:24;;;;;;;23.97;19.60;;;;;;;;;;5111326;28;20446;-62
2021/03/10 12:53:51;;;;;;;23.60;18.47;;;;;;;;;;5106243;28;20462;-61
2021/03/10 12:56:18;;;;;;;26.40;20.90;;;;;;;;;;5099567;28;20461;-60
2021/03/10 12:58:46;;;;;;;22.97;18.90;;;;;;;;;;5102581;28;20446;-63
2021/03/10 13:01:12;;;;;;;21.00;17.43;;;;;;;;;;5099691;28;20433;-61
2021/03/10 13:03:39;;;;;;;21.43;18.30;;;;;;;;;;5099497;28;20482;-63
2021/03/10 13:06:06;;;;;;;20.50;17.33;;;;;;;;;;5099794;28;20466;-63
2021/03/10 13:08:32;;;;;;;26.20;20.10;;;;;;;;;;5098763;28;20489;-63
2021/03/10 13:10:59;;;;;;;22.97;18.60;;;;;;;;;;5097915;28;20468;-64
2021/03/10 13:13:26;;;;;;;25.90;18.90;;;;;;;;;;5100426;28;20998;-63
2021/03/10 13:15:54;;;;;;;22.80;18.43;;;;;;;;;;5097268;28;20446;-62
2021/03/10 13:18:21;;;;;;;21.70;18.93;;;;;;;;;;5097431;28;20446;-61
2021/03/10 13:20:48;;;;;;;24.63;19.63;;;;;;;;;;5097358;28;20446;-63
2021/03/10 13:23:14;;;;;;;25.13;19.07;;;;;;;;;;5096819;28;20507;-63
2021/03/10 13:25:41;;;;;;;27.42;20.50;;;;;;;;;;5097060;28;20440;-63
2021/03/10 13:28:08;;;;;;;24.15;21.05;;;;;;;;;;5095623;28;20453;-63
2021/03/10 13:30:35;;;;;;;22.07;18.60;;;;;;;;;;5096785;28;20207;-62
2021/03/10 13:33:02;;;;;;;23.73;19.77;;;;;;;;;;5097217;28;20453;-62
2021/03/10 13:35:29;;;;;;;25.40;19.63;;;;;;;;;;5096454;28;20489;-62
2021/03/10 13:37:56;;;;;;;25.90;19.67;;;;;;;;;;5096265;28;20442;-63
2021/03/10 13:40:22;;;;;;;23.03;17.70;;;;;;;;;;5095984;28;20469;-63
2021/03/10 13:42:49;;;;;;;25.70;20.10;;;;;;;;;;5099563;28;20536;-61
2021/03/10 13:45:17;;;;;;;23.53;19.03;;;;;;;;;;5098883;28;20557;-62
2021/03/10 13:47:43;;;;;;;24.50;18.90;;;;;;;;;;5099876;28;20582;-62
2021/03/10 13:50:12;;;;;;;23.33;17.60;;;;;;;;;;5099682;28;20529;-63
2021/03/10 13:52:38;;;;;;;25.07;19.93;;;;;;;;;;5103860;28;20476;-61
2021/03/10 13:55:06;;;;;;;23.60;18.77;;;;;;;;;;5100135;28;20591;-62
2021/03/10 13:57:33;;;;;;;27.63;20.10;;;;;;;;;;5099443;28;20518;-63
2021/03/10 14:00:00;;;;;;;25.83;17.80;;;;;;;;;;5096156;28;20473;-63
2021/03/10 14:02:27;;;;;;;26.43;18.20;;;;;;;;;;5095673;28;21008;-61
2021/03/10 14:04:53;;;;;;;25.17;18.00;;;;;;;;;;5096208;28;20458;-63
2021/03/10 14:07:21;;;;;;;29.13;20.07;;;;;;;;;;5096259;28;20477;-62
2021/03/10 14:09:48;;;;;;;27.60;19.30;;;;;;;;;;5096400;28;20451;-62
2021/03/10 14:12:14;;;;;;;26.70;20.17;;;;;;;;;;5097117;28;20468;-63
2021/03/10 14:14:41;;;;;;;24.33;18.87;;;;;;;;;;5096146;28;20544;-64
2021/03/10 14:17:08;;;;;;;26.00;19.00;;;;;;;;;;5096169;28;20447;-63
2021/03/10 14:19:35;;;;;;;27.10;19.47;;;;;;;;;;5099014;28;20446;-64
2021/03/10 14:22:01;;;;;;;26.20;19.37;;;;;;;;;;5100635;28;20438;-64